sensor_id;sensor_type;location;lat;lon;timestamp;pressure;altitude;pressure_sealevel;temperature;humidity
30343;BME280;17145;49.902;8.680;'2023-03-04 00:57:32';100850;;;2;44
30343;BME280;17145;49.902;8.680;'2023-03-04 01:00:00';100850;;;2;45
30343;BME280;17145;49.902;8.680;'2023-03-04 01:02:28';100850;;;2;45
30343;BME280;17145;49.902;8.680;'2023-03-04 01:04:55';100850;;;2;45
30343;BME280;17145;49.902;8.680;'2023-03-04 01:07:23';100850;;;2;45
30343;BME280;17145;49.902;8.680;'2023-03-04 01:09:50';100860;;;2;45
30343;BME280;17145;49.902;8.680;'2023-03-04 01:12:18';100860;;;2;45
30343;BME280;17145;49.902;8.680;'2023-03-04 01:14:46';100860;;;1;45
30343;BME280;17145;49.902;8.680;'2023-03-04 01:17:13';100860;;;2;45
30343;BME280;17145;49.902;8.680;'2023-03-04 01:19:41';100860;;;1;46
30343;BME280;17145;49.902;8.680;'2023-03-04 01:22:09';100860;;;2;45
30343;BME280;17145;49.902;8.680;'2023-03-04 01:24:36';100860;;;1;46
30343;BME280;17145;49.902;8.680;'2023-03-04 01:27:04';100860;;;1;45
30343;BME280;17145;49.902;8.680;'2023-03-04 01:29:31';100860;;;1;46
30343;BME280;17145;49.902;8.680;'2023-03-04 01:31:59';100860;;;1;45
30343;BME280;17145;49.902;8.680;'2023-03-04 01:34:26';100860;;;1;45
30343;BME280;17145;49.902;8.680;'2023-03-04 01:36:54';100860;;;1;45
30343;BME280;17145;49.902;8.680;'2023-03-04 01:39:21';100860;;;1;46
30343;BME280;17145;49.902;8.680;'2023-03-04 01:41:49';100860;;;1;46
30343;BME280;17145;49.902;8.680;'2023-03-04 01:44:16';100860;;;1;46
30343;BME280;17145;49.902;8.680;'2023-03-04 01:46:44';100860;;;1;46
30343;BME280;17145;49.902;8.680;'2023-03-04 01:49:11';100860;;;1;46
30343;BME280;17145;49.902;8.680;'2023-03-04 01:51:39';100860;;;1;45
30343;BME280;17145;49.902;8.680;'2023-03-04 01:54:06';100860;;;1;45
30343;BME280;17145;49.902;8.680;'2023-03-04 01:56:34';100860;;;1;45
30343;BME280;17145;49.902;8.680;'2023-03-04 01:59:01';100870;;;1;46
30343;BME280;17145;49.902;8.680;'2023-03-04 02:01:28';100870;;;1;46
30343;BME280;17145;49.902;8.680;'2023-03-04 02:03:56';100860;;;1;46
30343;BME280;17145;49.902;8.680;'2023-03-04 02:06:23';100860;;;1;45
30343;BME280;17145;49.902;8.680;'2023-03-04 02:08:51';100860;;;1;46
30343;BME280;17145;49.902;8.680;'2023-03-04 02:11:19';100860;;;1;46
30343;BME280;17145;49.902;8.680;'2023-03-04 02:13:46';100860;;;1;46
30343;BME280;17145;49.902;8.680;'2023-03-04 02:16:14';100860;;;1;46
30343;BME280;17145;49.902;8.680;'2023-03-04 02:18:41';100860;;;1;46
30343;BME280;17145;49.902;8.680;'2023-03-04 02:21:09';100850;;;0;46
30343;BME280;17145;49.902;8.680;'2023-03-04 02:23:36';100850;;;1;46
30343;BME280;17145;49.902;8.680;'2023-03-04 02:26:04';100850;;;0;47
30343;BME280;17145;49.902;8.680;'2023-03-04 02:28:32';100850;;;0;47
30343;BME280;17145;49.902;8.680;'2023-03-04 02:30:59';100840;;;0;46
30343;BME280;17145;49.902;8.680;'2023-03-04 02:33:27';100840;;;0;46
30343;BME280;17145;49.902;8.680;'2023-03-04 02:35:54';100840;;;0;46
30343;BME280;17145;49.902;8.680;'2023-03-04 02:38:21';100840;;;1;46
30343;BME280;17145;49.902;8.680;'2023-03-04 02:40:50';100840;;;0;46
30343;BME280;17145;49.902;8.680;'2023-03-04 02:43:23';100830;;;1;46
30343;BME280;17145;49.902;8.680;'2023-03-04 02:45:52';100830;;;0;46
30343;BME280;17145;49.902;8.680;'2023-03-04 02:48:23';100830;;;0;46
30343;BME280;17145;49.902;8.680;'2023-03-04 02:50:51';100820;;;0;47
30343;BME280;17145;49.902;8.680;'2023-03-04 02:53:22';100820;;;0;47
30343;BME280;17145;49.902;8.680;'2023-03-04 02:55:51';100820;;;0;47
30343;BME280;17145;49.902;8.680;'2023-03-04 02:58:19';100820;;;0;47
30343;BME280;17145;49.902;8.680;'2023-03-04 03:00:48';100820;;;1;47
30343;BME280;17145;49.902;8.680;'2023-03-04 03:03:17';100820;;;1;47
30343;BME280;17145;49.902;8.680;'2023-03-04 03:05:48';100820;;;0;47
30343;BME280;17145;49.902;8.680;'2023-03-04 03:08:18';100820;;;1;47
30343;BME280;17145;49.902;8.680;'2023-03-04 03:10:46';100810;;;1;47
30343;BME280;17145;49.902;8.680;'2023-03-04 03:13:15';100810;;;1;47
30343;BME280;17145;49.902;8.680;'2023-03-04 03:15:44';100810;;;1;47
30343;BME280;17145;49.902;8.680;'2023-03-04 03:18:16';100810;;;0;47
30343;BME280;17145;49.902;8.680;'2023-03-04 03:20:53';100810;;;0;47
30343;BME280;17145;49.902;8.680;'2023-03-04 03:23:29';100810;;;0;47
30343;BME280;17145;49.902;8.680;'2023-03-04 03:26:08';100810;;;0;47
30343;BME280;17145;49.902;8.680;'2023-03-04 03:28:36';100800;;;1;47
30343;BME280;17145;49.902;8.680;'2023-03-04 03:31:04';100800;;;1;47
30343;BME280;17145;49.902;8.680;'2023-03-04 03:33:31';100800;;;1;47
30343;BME280;17145;49.902;8.680;'2023-03-04 03:35:59';100800;;;0;47
30343;BME280;17145;49.902;8.680;'2023-03-04 03:38:27';100800;;;0;47
30343;BME280;17145;49.902;8.680;'2023-03-04 03:40:56';100790;;;0;47
30343;BME280;17145;49.902;8.680;'2023-03-04 03:43:23';100790;;;1;47
30343;BME280;17145;49.902;8.680;'2023-03-04 03:45:51';100790;;;1;48
30343;BME280;17145;49.902;8.680;'2023-03-04 03:48:20';100780;;;0;48
30343;BME280;17145;49.902;8.680;'2023-03-04 03:50:51';100780;;;0;48
30343;BME280;17145;49.902;8.680;'2023-03-04 03:53:20';100790;;;1;48
30343;BME280;17145;49.902;8.680;'2023-03-04 03:55:47';100790;;;1;48
30343;BME280;17145;49.902;8.680;'2023-03-04 03:58:15';100790;;;1;48
30343;BME280;17145;49.902;8.680;'2023-03-04 04:00:43';100780;;;1;48
30343;BME280;17145;49.902;8.680;'2023-03-04 04:03:10';100780;;;1;48
30343;BME280;17145;49.902;8.680;'2023-03-04 04:05:38';100780;;;1;48
30343;BME280;17145;49.902;8.680;'2023-03-04 04:08:06';100780;;;1;48
30343;BME280;17145;49.902;8.680;'2023-03-04 04:10:33';100780;;;1;48
30343;BME280;17145;49.902;8.680;'2023-03-04 04:13:01';100780;;;1;48
30343;BME280;17145;49.902;8.680;'2023-03-04 04:15:29';100780;;;1;48
30343;BME280;17145;49.902;8.680;'2023-03-04 04:17:57';100780;;;1;49
30343;BME280;17145;49.902;8.680;'2023-03-04 04:20:24';100780;;;1;49
30343;BME280;17145;49.902;8.680;'2023-03-04 04:22:52';100780;;;1;48
30343;BME280;17145;49.902;8.680;'2023-03-04 04:25:19';100770;;;1;48
30343;BME280;17145;49.902;8.680;'2023-03-04 04:27:46';100770;;;1;49
30343;BME280;17145;49.902;8.680;'2023-03-04 04:30:16';100770;;;1;49
30343;BME280;17145;49.902;8.680;'2023-03-04 04:32:44';100760;;;1;49
30343;BME280;17145;49.902;8.680;'2023-03-04 04:35:12';100760;;;1;49
30343;BME280;17145;49.902;8.680;'2023-03-04 04:37:39';100760;;;1;49
30343;BME280;17145;49.902;8.680;'2023-03-04 04:40:08';100760;;;1;48
30343;BME280;17145;49.902;8.680;'2023-03-04 04:42:36';100760;;;1;48
30343;BME280;17145;49.902;8.680;'2023-03-04 04:45:04';100760;;;1;48
30343;BME280;17145;49.902;8.680;'2023-03-04 04:47:32';100760;;;1;48
30343;BME280;17145;49.902;8.680;'2023-03-04 04:49:59';100760;;;1;48
30343;BME280;17145;49.902;8.680;'2023-03-04 04:52:27';100760;;;1;48
30343;BME280;17145;49.902;8.680;'2023-03-04 04:54:55';100760;;;1;48
30343;BME280;17145;49.902;8.680;'2023-03-04 04:57:22';100760;;;1;48
30343;BME280;17145;49.902;8.680;'2023-03-04 04:59:49';100760;;;1;48
30343;BME280;17145;49.902;8.680;'2023-03-04 05:02:17';100760;;;1;48
30343;BME280;17145;49.902;8.680;'2023-03-04 05:04:44';100760;;;1;49
30343;BME280;17145;49.902;8.680;'2023-03-04 05:07:12';100760;;;1;49
30343;BME280;17145;49.902;8.680;'2023-03-04 05:09:39';100760;;;1;49
30343;BME280;17145;49.902;8.680;'2023-03-04 05:12:07';100760;;;1;49
30343;BME280;17145;49.902;8.680;'2023-03-04 05:14:34';100760;;;1;49
30343;BME280;17145;49.902;8.680;'2023-03-04 05:17:02';100760;;;1;49
30343;BME280;17145;49.902;8.680;'2023-03-04 05:19:29';100760;;;1;49
30343;BME280;17145;49.902;8.680;'2023-03-04 05:21:57';100760;;;2;49
30343;BME280;17145;49.902;8.680;'2023-03-04 05:24:24';100760;;;2;50
30343;BME280;17145;49.902;8.680;'2023-03-04 05:26:52';100760;;;2;49
30343;BME280;17145;49.902;8.680;'2023-03-04 05:29:19';100760;;;2;49
30343;BME280;17145;49.902;8.680;'2023-03-04 05:31:47';100760;;;2;49
30343;BME280;17145;49.902;8.680;'2023-03-04 05:34:14';100760;;;1;49
30343;BME280;17145;49.902;8.680;'2023-03-04 05:36:42';100760;;;2;49
30343;BME280;17145;49.902;8.680;'2023-03-04 05:39:09';100760;;;2;49
30343;BME280;17145;49.902;8.680;'2023-03-04 05:41:39';100760;;;2;49
30343;BME280;17145;49.902;8.680;'2023-03-04 05:44:07';100760;;;1;49
30343;BME280;17145;49.902;8.680;'2023-03-04 05:46:35';100760;;;1;49
30343;BME280;17145;49.902;8.680;'2023-03-04 05:49:03';100760;;;1;49
30343;BME280;17145;49.902;8.680;'2023-03-04 05:51:31';100760;;;2;49
30343;BME280;17145;49.902;8.680;'2023-03-04 05:54:00';100760;;;2;49
30343;BME280;17145;49.902;8.680;'2023-03-04 05:56:28';100750;;;1;48
30343;BME280;17145;49.902;8.680;'2023-03-04 05:58:58';100760;;;2;49
30343;BME280;17145;49.902;8.680;'2023-03-04 06:01:26';100760;;;2;49
30343;BME280;17145;49.902;8.680;'2023-03-04 06:03:54';100760;;;1;49
30343;BME280;17145;49.902;8.680;'2023-03-04 06:06:23';100750;;;2;49
30343;BME280;17145;49.902;8.680;'2023-03-04 06:08:51';100750;;;2;49
30343;BME280;17145;49.902;8.680;'2023-03-04 06:11:19';100750;;;1;49
30343;BME280;17145;49.902;8.680;'2023-03-04 06:13:47';100760;;;2;49
30343;BME280;17145;49.902;8.680;'2023-03-04 06:16:15';100750;;;2;49
30343;BME280;17145;49.902;8.680;'2023-03-04 06:18:43';100750;;;2;49
30343;BME280;17145;49.902;8.680;'2023-03-04 06:21:10';100750;;;2;49
30343;BME280;17145;49.902;8.680;'2023-03-04 06:23:40';100750;;;2;49
30343;BME280;17145;49.902;8.680;'2023-03-04 06:26:10';100750;;;2;49
30343;BME280;17145;49.902;8.680;'2023-03-04 06:28:38';100750;;;2;49
30343;BME280;17145;49.902;8.680;'2023-03-04 06:31:06';100740;;;2;49
30343;BME280;17145;49.902;8.680;'2023-03-04 06:33:33';100740;;;2;49
30343;BME280;17145;49.902;8.680;'2023-03-04 06:36:01';100750;;;2;49
30343;BME280;17145;49.902;8.680;'2023-03-04 06:38:28';100740;;;2;49
30343;BME280;17145;49.902;8.680;'2023-03-04 06:40:57';100740;;;2;49
30343;BME280;17145;49.902;8.680;'2023-03-04 06:43:25';100750;;;2;49
30343;BME280;17145;49.902;8.680;'2023-03-04 06:45:52';100750;;;2;49
30343;BME280;17145;49.902;8.680;'2023-03-04 06:48:20';100760;;;2;49
30343;BME280;17145;49.902;8.680;'2023-03-04 06:50:53';100750;;;2;49
30343;BME280;17145;49.902;8.680;'2023-03-04 06:53:20';100750;;;2;48
30343;BME280;17145;49.902;8.680;'2023-03-04 06:55:48';100750;;;2;48
30343;BME280;17145;49.902;8.680;'2023-03-04 06:58:16';100750;;;2;48
30343;BME280;17145;49.902;8.680;'2023-03-04 07:00:44';100760;;;2;48
30343;BME280;17145;49.902;8.680;'2023-03-04 07:03:15';100750;;;2;48
30343;BME280;17145;49.902;8.680;'2023-03-04 07:05:43';100750;;;2;49
30343;BME280;17145;49.902;8.680;'2023-03-04 07:08:11';100760;;;2;49
30343;BME280;17145;49.902;8.680;'2023-03-04 07:10:40';100760;;;2;49
30343;BME280;17145;49.902;8.680;'2023-03-04 07:13:08';100760;;;2;48
30343;BME280;17145;49.902;8.680;'2023-03-04 07:15:36';100770;;;2;49
30343;BME280;17145;49.902;8.680;'2023-03-04 07:18:03';100770;;;2;49
30343;BME280;17145;49.902;8.680;'2023-03-04 07:20:31';100770;;;2;48
30343;BME280;17145;49.902;8.680;'2023-03-04 07:22:58';100770;;;2;48
30343;BME280;17145;49.902;8.680;'2023-03-04 07:25:26';100780;;;2;48
30343;BME280;17145;49.902;8.680;'2023-03-04 07:27:54';100780;;;2;49
30343;BME280;17145;49.902;8.680;'2023-03-04 07:30:22';100780;;;2;49
30343;BME280;17145;49.902;8.680;'2023-03-04 07:32:49';100780;;;2;49
30343;BME280;17145;49.902;8.680;'2023-03-04 07:35:17';100780;;;2;48
30343;BME280;17145;49.902;8.680;'2023-03-04 07:37:45';100790;;;2;48
30343;BME280;17145;49.902;8.680;'2023-03-04 07:40:13';100790;;;2;48
30343;BME280;17145;49.902;8.680;'2023-03-04 07:42:41';100790;;;2;48
30343;BME280;17145;49.902;8.680;'2023-03-04 07:45:10';100800;;;2;48
30343;BME280;17145;49.902;8.680;'2023-03-04 07:47:38';100800;;;2;48
30343;BME280;17145;49.902;8.680;'2023-03-04 07:50:05';100800;;;2;48
30343;BME280;17145;49.902;8.680;'2023-03-04 07:52:33';100800;;;2;48
30343;BME280;17145;49.902;8.680;'2023-03-04 07:55:02';100800;;;2;48
30343;BME280;17145;49.902;8.680;'2023-03-04 07:57:30';100800;;;2;48
30343;BME280;17145;49.902;8.680;'2023-03-04 07:59:57';100800;;;2;48
30343;BME280;17145;49.902;8.680;'2023-03-04 08:02:24';100810;;;2;48
30343;BME280;17145;49.902;8.680;'2023-03-04 08:04:52';100800;;;2;48
30343;BME280;17145;49.902;8.680;'2023-03-04 08:07:19';100810;;;2;48
30343;BME280;17145;49.902;8.680;'2023-03-04 08:09:47';100810;;;3;48
30343;BME280;17145;49.902;8.680;'2023-03-04 08:12:14';100810;;;2;48
30343;BME280;17145;49.902;8.680;'2023-03-04 08:14:42';100810;;;2;47
30343;BME280;17145;49.902;8.680;'2023-03-04 08:17:09';100810;;;3;47
30343;BME280;17145;49.902;8.680;'2023-03-04 08:19:37';100810;;;2;47
30343;BME280;17145;49.902;8.680;'2023-03-04 08:22:05';100820;;;3;47
30343;BME280;17145;49.902;8.680;'2023-03-04 08:24:32';100810;;;3;48
30343;BME280;17145;49.902;8.680;'2023-03-04 08:27:00';100810;;;3;47
30343;BME280;17145;49.902;8.680;'2023-03-04 08:29:27';100810;;;3;47
30343;BME280;17145;49.902;8.680;'2023-03-04 08:31:55';100820;;;3;47
30343;BME280;17145;49.902;8.680;'2023-03-04 08:34:22';100820;;;3;47
30343;BME280;17145;49.902;8.680;'2023-03-04 08:36:50';100820;;;3;47
30343;BME280;17145;49.902;8.680;'2023-03-04 08:39:17';100820;;;3;47
30343;BME280;17145;49.902;8.680;'2023-03-04 08:41:45';100820;;;3;47
30343;BME280;17145;49.902;8.680;'2023-03-04 08:44:13';100820;;;3;47
30343;BME280;17145;49.902;8.680;'2023-03-04 08:46:41';100820;;;3;46
30343;BME280;17145;49.902;8.680;'2023-03-04 08:49:11';100820;;;3;46
30343;BME280;17145;49.902;8.680;'2023-03-04 08:51:39';100830;;;3;46
30343;BME280;17145;49.902;8.680;'2023-03-04 08:54:06';100830;;;3;46
30343;BME280;17145;49.902;8.680;'2023-03-04 08:56:34';100830;;;3;46
30343;BME280;17145;49.902;8.680;'2023-03-04 08:59:02';100840;;;3;46
30343;BME280;17145;49.902;8.680;'2023-03-04 09:01:32';100830;;;3;46
30343;BME280;17145;49.902;8.680;'2023-03-04 09:04:01';100830;;;3;47
30343;BME280;17145;49.902;8.680;'2023-03-04 09:06:29';100830;;;3;47
30343;BME280;17145;49.902;8.680;'2023-03-04 09:08:58';100830;;;3;47
30343;BME280;17145;49.902;8.680;'2023-03-04 09:11:26';100830;;;3;47
30343;BME280;17145;49.902;8.680;'2023-03-04 09:13:54';100830;;;3;46
30343;BME280;17145;49.902;8.680;'2023-03-04 09:16:23';100830;;;3;46
30343;BME280;17145;49.902;8.680;'2023-03-04 09:18:52';100830;;;3;46
30343;BME280;17145;49.902;8.680;'2023-03-04 09:21:21';100840;;;3;46
30343;BME280;17145;49.902;8.680;'2023-03-04 09:23:50';100840;;;3;46
30343;BME280;17145;49.902;8.680;'2023-03-04 09:26:20';100840;;;3;46
30343;BME280;17145;49.902;8.680;'2023-03-04 09:28:48';100840;;;4;45
30343;BME280;17145;49.902;8.680;'2023-03-04 09:31:17';100840;;;3;45
30343;BME280;17145;49.902;8.680;'2023-03-04 09:33:45';100840;;;3;45
30343;BME280;17145;49.902;8.680;'2023-03-04 09:36:13';100840;;;4;45
30343;BME280;17145;49.902;8.680;'2023-03-04 09:38:41';100840;;;3;45
30343;BME280;17145;49.902;8.680;'2023-03-04 09:41:09';100850;;;4;45
30343;BME280;17145;49.902;8.680;'2023-03-04 09:43:36';100850;;;4;45
30343;BME280;17145;49.902;8.680;'2023-03-04 09:46:04';100850;;;4;45
30343;BME280;17145;49.902;8.680;'2023-03-04 09:48:33';100850;;;3;45
30343;BME280;17145;49.902;8.680;'2023-03-04 09:51:05';100850;;;4;45
30343;BME280;17145;49.902;8.680;'2023-03-04 09:53:32';100850;;;4;45
30343;BME280;17145;49.902;8.680;'2023-03-04 09:56:00';100850;;;4;45
30343;BME280;17145;49.902;8.680;'2023-03-04 09:58:27';100860;;;3;44
30343;BME280;17145;49.902;8.680;'2023-03-04 10:00:55';100850;;;4;44
30343;BME280;17145;49.902;8.680;'2023-03-04 10:03:22';100850;;;4;44
30343;BME280;17145;49.902;8.680;'2023-03-04 10:05:50';100850;;;4;45
30343;BME280;17145;49.902;8.680;'2023-03-04 10:08:17';100850;;;4;45
30343;BME280;17145;49.902;8.680;'2023-03-04 10:10:45';100850;;;4;45
30343;BME280;17145;49.902;8.680;'2023-03-04 10:13:13';100850;;;4;45
30343;BME280;17145;49.902;8.680;'2023-03-04 10:15:45';100850;;;4;44
30343;BME280;17145;49.902;8.680;'2023-03-04 10:18:13';100850;;;4;44
30343;BME280;17145;49.902;8.680;'2023-03-04 10:20:41';100850;;;4;44
30343;BME280;17145;49.902;8.680;'2023-03-04 10:23:09';100850;;;4;44
30343;BME280;17145;49.902;8.680;'2023-03-04 10:25:36';100850;;;4;44
30343;BME280;17145;49.902;8.680;'2023-03-04 10:28:05';100850;;;4;43
30343;BME280;17145;49.902;8.680;'2023-03-04 10:30:33';100840;;;4;43
30343;BME280;17145;49.902;8.680;'2023-03-04 10:33:00';100840;;;4;43
30343;BME280;17145;49.902;8.680;'2023-03-04 10:35:28';100840;;;4;43
30343;BME280;17145;49.902;8.680;'2023-03-04 10:37:56';100840;;;4;43
30343;BME280;17145;49.902;8.680;'2023-03-04 10:40:27';100840;;;4;43
30343;BME280;17145;49.902;8.680;'2023-03-04 10:42:59';100840;;;5;42
30343;BME280;17145;49.902;8.680;'2023-03-04 10:45:33';100840;;;4;42
30343;BME280;17145;49.902;8.680;'2023-03-04 10:48:01';100840;;;4;43
30343;BME280;17145;49.902;8.680;'2023-03-04 10:50:33';100840;;;5;42
30343;BME280;17145;49.902;8.680;'2023-03-04 10:53:11';100850;;;4;42
30343;BME280;17145;49.902;8.680;'2023-03-04 10:55:41';100840;;;4;42
30343;BME280;17145;49.902;8.680;'2023-03-04 10:58:21';100840;;;5;41
30343;BME280;17145;49.902;8.680;'2023-03-04 11:00:54';100840;;;4;42
30343;BME280;17145;49.902;8.680;'2023-03-04 11:03:26';100840;;;4;42
30343;BME280;17145;49.902;8.680;'2023-03-04 11:05:58';100840;;;5;42
30343;BME280;17145;49.902;8.680;'2023-03-04 11:08:35';100840;;;5;42
30343;BME280;17145;49.902;8.680;'2023-03-04 11:11:10';100830;;;5;41
30343;BME280;17145;49.902;8.680;'2023-03-04 11:13:47';100830;;;5;41
30343;BME280;17145;49.902;8.680;'2023-03-04 11:16:21';100830;;;5;41
30343;BME280;17145;49.902;8.680;'2023-03-04 11:18:54';100830;;;5;40
30343;BME280;17145;49.902;8.680;'2023-03-04 11:21:28';100820;;;5;40
30343;BME280;17145;49.902;8.680;'2023-03-04 11:23:56';100820;;;5;41
30343;BME280;17145;49.902;8.680;'2023-03-04 11:26:29';100830;;;5;40
30343;BME280;17145;49.902;8.680;'2023-03-04 11:28:57';100820;;;5;40
30343;BME280;17145;49.902;8.680;'2023-03-04 11:31:31';100830;;;4;40
30343;BME280;17145;49.902;8.680;'2023-03-04 11:33:59';100830;;;4;40
30343;BME280;17145;49.902;8.680;'2023-03-04 11:36:37';100830;;;5;40
30343;BME280;17145;49.902;8.680;'2023-03-04 11:39:08';100820;;;5;41
30343;BME280;17145;49.902;8.680;'2023-03-04 11:41:36';100820;;;5;40
30343;BME280;17145;49.902;8.680;'2023-03-04 11:44:10';100820;;;5;40
30343;BME280;17145;49.902;8.680;'2023-03-04 11:46:39';100820;;;5;41
30343;BME280;17145;49.902;8.680;'2023-03-04 11:49:09';100820;;;5;41
30343;BME280;17145;49.902;8.680;'2023-03-04 11:51:42';100820;;;5;40
30343;BME280;17145;49.902;8.680;'2023-03-04 11:54:21';100810;;;5;41
30343;BME280;17145;49.902;8.680;'2023-03-04 11:56:55';100810;;;5;41
30343;BME280;17145;49.902;8.680;'2023-03-04 11:59:32';100800;;;5;41
30343;BME280;17145;49.902;8.680;'2023-03-04 12:02:03';100800;;;5;40
30343;BME280;17145;49.902;8.680;'2023-03-04 12:04:33';100800;;;5;41
30343;BME280;17145;49.902;8.680;'2023-03-04 12:07:01';100800;;;5;41
30343;BME280;17145;49.902;8.680;'2023-03-04 12:09:30';100800;;;4;41
30343;BME280;17145;49.902;8.680;'2023-03-04 12:11:59';100790;;;5;41
30343;BME280;17145;49.902;8.680;'2023-03-04 12:14:30';100790;;;5;41
30343;BME280;17145;49.902;8.680;'2023-03-04 12:16:59';100780;;;5;41
30343;BME280;17145;49.902;8.680;'2023-03-04 12:19:30';100780;;;5;40
30343;BME280;17145;49.902;8.680;'2023-03-04 12:21:59';100780;;;5;40
30343;BME280;17145;49.902;8.680;'2023-03-04 12:24:29';100780;;;5;40
30343;BME280;17145;49.902;8.680;'2023-03-04 12:27:04';100780;;;5;40
30343;BME280;17145;49.902;8.680;'2023-03-04 12:29:37';100780;;;5;40
30343;BME280;17145;49.902;8.680;'2023-03-04 12:32:10';100780;;;5;40
30343;BME280;17145;49.902;8.680;'2023-03-04 12:34:44';100780;;;5;40
30343;BME280;17145;49.902;8.680;'2023-03-04 12:37:17';100770;;;5;40
30343;BME280;17145;49.902;8.680;'2023-03-04 12:39:49';100770;;;5;40
30343;BME280;17145;49.902;8.680;'2023-03-04 12:42:28';100770;;;5;40
30343;BME280;17145;49.902;8.680;'2023-03-04 12:44:56';100770;;;5;41
30343;BME280;17145;49.902;8.680;'2023-03-04 12:50:17';100760;;;5;41
30343;BME280;17145;49.902;8.680;'2023-03-04 12:52:57';100760;;;5;41
30343;BME280;17145;49.902;8.680;'2023-03-04 12:55:37';100760;;;6;41
30343;BME280;17145;49.902;8.680;'2023-03-04 12:58:20';100760;;;5;41
30343;BME280;17145;49.902;8.680;'2023-03-04 13:00:57';100750;;;6;41
30343;BME280;17145;49.902;8.680;'2023-03-04 13:03:46';100750;;;5;41
30343;BME280;17145;49.902;8.680;'2023-03-04 13:06:25';100750;;;5;41
30343;BME280;17145;49.902;8.680;'2023-03-04 13:09:07';100750;;;5;41
30343;BME280;17145;49.902;8.680;'2023-03-04 13:11:44';100750;;;5;41
30343;BME280;17145;49.902;8.680;'2023-03-04 13:17:07';100740;;;5;41
30343;BME280;17145;49.902;8.680;'2023-03-04 13:19:49';100740;;;5;41
30343;BME280;17145;49.902;8.680;'2023-03-04 13:22:28';100740;;;5;41
30343;BME280;17145;49.902;8.680;'2023-03-04 13:25:14';100740;;;5;41
30343;BME280;17145;49.902;8.680;'2023-03-04 13:27:53';100740;;;5;41
30343;BME280;17145;49.902;8.680;'2023-03-04 13:30:34';100740;;;5;41
30343;BME280;17145;49.902;8.680;'2023-03-04 13:33:13';100730;;;5;41
30343;BME280;17145;49.902;8.680;'2023-03-04 13:35:50';100730;;;5;41
30343;BME280;17145;49.902;8.680;'2023-03-04 13:38:33';100720;;;5;41
30343;BME280;17145;49.902;8.680;'2023-03-04 13:41:14';100720;;;5;41
30343;BME280;17145;49.902;8.680;'2023-03-04 13:43:52';100720;;;6;41
30343;BME280;17145;49.902;8.680;'2023-03-04 13:49:11';100710;;;6;41
30343;BME280;17145;49.902;8.680;'2023-03-04 13:51:49';100710;;;6;41
30343;BME280;17145;49.902;8.680;'2023-03-04 13:54:29';100700;;;5;41
30343;BME280;17145;49.902;8.680;'2023-03-04 13:56:59';100710;;;6;40
30343;BME280;17145;49.902;8.680;'2023-03-04 13:59:34';100700;;;6;40
30343;BME280;17145;49.902;8.680;'2023-03-04 14:02:16';100710;;;6;41
30343;BME280;17145;49.902;8.680;'2023-03-04 14:04:55';100700;;;5;41
30343;BME280;17145;49.902;8.680;'2023-03-04 14:07:36';100700;;;6;41
30343;BME280;17145;49.902;8.680;'2023-03-04 14:10:09';100700;;;6;41
30343;BME280;17145;49.902;8.680;'2023-03-04 14:15:23';100690;;;6;40
30343;BME280;17145;49.902;8.680;'2023-03-04 14:17:52';100680;;;6;40
30343;BME280;17145;49.902;8.680;'2023-03-04 14:20:28';100680;;;6;40
30343;BME280;17145;49.902;8.680;'2023-03-04 14:22:57';100680;;;6;40
30343;BME280;17145;49.902;8.680;'2023-03-04 14:25:31';100680;;;6;40
30343;BME280;17145;49.902;8.680;'2023-03-04 14:31:03';100670;;;6;40
30343;BME280;17145;49.902;8.680;'2023-03-04 14:33:50';100670;;;5;40
30343;BME280;17145;49.902;8.680;'2023-03-04 14:36:29';100660;;;5;41
30343;BME280;17145;49.902;8.680;'2023-03-04 14:38:58';100650;;;6;40
30343;BME280;17145;49.902;8.680;'2023-03-04 14:41:29';100640;;;6;41
30343;BME280;17145;49.902;8.680;'2023-03-04 14:46:35';100640;;;6;40
30343;BME280;17145;49.902;8.680;'2023-03-04 14:49:05';100640;;;6;39
30343;BME280;17145;49.902;8.680;'2023-03-04 14:51:34';100640;;;6;40
30343;BME280;17145;49.902;8.680;'2023-03-04 14:54:13';100630;;;6;40
30343;BME280;17145;49.902;8.680;'2023-03-04 14:56:41';100630;;;6;40
30343;BME280;17145;49.902;8.680;'2023-03-04 14:59:22';100630;;;6;40
30343;BME280;17145;49.902;8.680;'2023-03-04 15:01:55';100620;;;6;40
30343;BME280;17145;49.902;8.680;'2023-03-04 15:04:28';100620;;;6;41
30343;BME280;17145;49.902;8.680;'2023-03-04 15:06:59';100620;;;6;40
30343;BME280;17145;49.902;8.680;'2023-03-04 15:09:28';100620;;;6;39
30343;BME280;17145;49.902;8.680;'2023-03-04 15:11:58';100620;;;6;39
30343;BME280;17145;49.902;8.680;'2023-03-04 15:14:28';100620;;;6;39
30343;BME280;17145;49.902;8.680;'2023-03-04 15:16:59';100620;;;6;39
30343;BME280;17145;49.902;8.680;'2023-03-04 15:19:28';100620;;;6;39
30343;BME280;17145;49.902;8.680;'2023-03-04 15:21:58';100610;;;6;39
30343;BME280;17145;49.902;8.680;'2023-03-04 15:24:25';100610;;;7;39
30343;BME280;17145;49.902;8.680;'2023-03-04 15:27:08';100610;;;7;39
30343;BME280;17145;49.902;8.680;'2023-03-04 15:29:36';100610;;;7;39
30343;BME280;17145;49.902;8.680;'2023-03-04 15:32:05';100600;;;6;40
30343;BME280;17145;49.902;8.680;'2023-03-04 15:37:14';100600;;;6;39
30343;BME280;17145;49.902;8.680;'2023-03-04 15:39:42';100600;;;6;39
30343;BME280;17145;49.902;8.680;'2023-03-04 15:42:13';100590;;;6;39
30343;BME280;17145;49.902;8.680;'2023-03-04 15:44:43';100590;;;6;39
30343;BME280;17145;49.902;8.680;'2023-03-04 15:47:19';100590;;;6;39
30343;BME280;17145;49.902;8.680;'2023-03-04 15:49:47';100590;;;6;40
30343;BME280;17145;49.902;8.680;'2023-03-04 15:52:29';100580;;;6;40